Details From YBDV - Birdsville
To YBCV - Charleville
Flight Number -
Tags Generated
Created
Modified
Stats Distance 374 nm / 693 km
Max Altitude 0 ft / 0 m
Waypoints 3
Social Downloads 0
Likes 0
Share VATSIM

Download

Looking for another format? Having issues loading an existing format? Contact us
Advertisement - Login to hide

Notes

Generated

Route

YBDV CV YBCV

ID Type Via Altitude Latitude Longitude Leg Dist Tot Dist Heading (true) Name
O YBDV APT - 0 ft / 0 m -25.90387˚ 139.34334˚ - 0 nm - -
CV NDB - 0 ft / 0 m -26.42000˚ 146.24889˚ 373 nm 373 nm 96° / 93° CHARLEVILLE NDB
O YBCV APT - 0 ft / 0 m -26.41274˚ 146.26212˚ 0 nm 374 nm 59° / 59° -

Altitude Profile

Advertisement - Login to hide

Weather


0- 5 10 15 20 25 30 35+ Temperature / ° C

Clouds and Precipitation
Forecast for 2017-12-14 00:00 UTC. Updated an hour ago

Ground ~20,000 ft ~40,000 ft Winds

YBDV

Details ICAO YBDV (BVI)
Name Birdsville
Region Australia
Timezone Australia/Brisbane (UTC+10.0)
Stats Elevation 157 ft / 48 m (AMSL)
Location -25.895770° 139.346033°
Runways 2
Magnetic Variation 6.495° E

METAR

YBDV 140000Z AUTO 31017KT //// // ////// 41/09 Q1006

Decode

TAF

Not found

Departure Runways

ID Width Length Bearing (true) Bearing (mag) Surface Threshold Offset Overrun Length
03 131 ft / 40 m 4,143 ft / 1,263 m 39.62° 33.13° Dirt 0 ft / 0 m 0 ft / 0 m
14 98 ft / 30 m 5,696 ft / 1,736 m 148.89° 142.40° Asphalt 0 ft / 0 m 0 ft / 0 m
21 131 ft / 40 m 4,143 ft / 1,263 m 219.62° 213.13° Dirt 0 ft / 0 m 0 ft / 0 m
32 98 ft / 30 m 5,696 ft / 1,736 m 328.89° 322.40° Asphalt 0 ft / 0 m 0 ft / 0 m

YBCV

Details ICAO YBCV (CTL)
Name Charleville
Region Australia
Timezone Australia/Brisbane (UTC+10.0)
Stats Elevation 1,003 ft / 306 m (AMSL)
Location -26.415259° 146.262339°
Runways 2
Magnetic Variation 8.723° E

METAR

YBCV 140000Z AUTO 01011KT 360V060 9999 // NCD 33/08 Q1012

Decode

TAF

Not found

Destination Runways

ID Width Length Bearing (true) Bearing (mag) Surface Threshold Offset Overrun Length
12 98 ft / 30 m 5,010 ft / 1,527 m 137.17° 128.45° Asphalt 0 ft / 0 m 492 ft / 150 m
18 75 ft / 23 m 3,512 ft / 1,071 m 181.96° 173.24° Asphalt 0 ft / 0 m 1,683 ft / 513 m
30 98 ft / 30 m 5,010 ft / 1,527 m 317.17° 308.45° Asphalt 0 ft / 0 m 600 ft / 183 m
36 75 ft / 23 m 3,512 ft / 1,071 m 1.96° 353.24° Asphalt 0 ft / 0 m 207 ft / 63 m